Time;durP1;ratioP1;P1;durP2;ratioP2;P2;SDS_P1;SDS_P2;PMS_P1;PMS_P2;Temp;Humidity;BMP_temperature;BMP_pressure;BME280_temperature;BME280_humidity;BME280_pressure;Samples;Min_cycle;Max_cycle;Signal;HPM_P1;HPM_P2
2022/04/19 00:00:59;;;;;;;;;;;12.40;99.90;;;;;;5069839;28;19919;-90
2022/04/19 00:03:25;;;;;;;;;;;12.20;99.90;;;;;;5052331;28;20270;-89
2022/04/19 00:05:50;;;;;;;;;;;12.20;99.90;;;;;;5069672;28;19912;-89
2022/04/19 00:08:16;;;;;;;;;;;12.30;99.90;;;;;;5051610;28;19916;-89
2022/04/19 00:10:42;;;;;;;;;;;12.30;99.90;;;;;;5069666;28;19921;-89
2022/04/19 00:13:10;;;;;;;;;;;12.30;99.90;;;;;;5051455;28;21963;-89
2022/04/19 00:15:38;;;;;;;;;;;12.20;99.90;;;;;;5069767;28;19908;-89
2022/04/19 00:18:06;;;;;;;;;;;12.30;99.90;;;;;;5052746;28;20424;-89
2022/04/19 00:20:33;;;;;;;;;;;12.20;99.90;;;;;;5065064;28;19921;-90
2022/04/19 00:22:58;;;;;;;;;;;12.20;99.90;;;;;;5064890;28;19920;-89
2022/04/19 00:25:24;;;;;;;;;;;12.20;99.90;;;;;;5073442;28;19909;-91
2022/04/19 00:27:50;;;;;;;;;;;12.10;99.90;;;;;;5054971;28;19908;-90
2022/04/19 00:30:16;;;;;;;;;;;12.10;99.90;;;;;;5055355;28;19908;-90
2022/04/19 00:32:42;;;;;;;;;;;12.10;99.90;;;;;;5056488;28;19973;-91
2022/04/19 00:35:09;;;;;;;;;;;11.90;99.90;;;;;;5054948;28;19908;-90
2022/04/19 00:37:35;;;;;;;;;;;11.90;99.90;;;;;;5055025;28;19908;-90
2022/04/19 00:40:01;;;;;;;;;;;11.90;99.90;;;;;;5072851;28;20007;-90
2022/04/19 00:42:28;;;;;;;;;;;11.80;99.90;;;;;;5054852;28;20011;-90
2022/04/19 00:44:58;;;;;;;;;;;11.80;99.90;;;;;;5072828;28;19915;-90
2022/04/19 00:47:24;;;;;;;;;;;11.80;99.90;;;;;;5072427;28;20426;-90
2022/04/19 00:49:50;;;;;;;;;;;11.70;99.90;;;;;;5072882;28;19912;-90
2022/04/19 00:52:16;;;;;;;;;;;11.50;99.90;;;;;;5072801;28;19985;-90
2022/04/19 00:54:41;;;;;;;;;;;11.50;99.90;;;;;;5054625;28;19912;-90
2022/04/19 00:57:07;;;;;;;;;;;11.50;99.90;;;;;;5054670;28;20360;-90
2022/04/19 00:59:33;;;;;;;;;;;11.40;99.90;;;;;;5072519;28;19944;-90
2022/04/19 01:01:59;;;;;;;;;;;11.40;99.90;;;;;;5072515;28;19909;-90
2022/04/19 01:04:25;;;;;;;;;;;11.30;99.90;;;;;;5072016;28;19913;-90
2022/04/19 01:06:51;;;;;;;;;;;11.30;99.90;;;;;;5054461;28;19908;-90
2022/04/19 01:09:17;;;;;;;;;;;11.40;99.90;;;;;;5072585;28;19909;-90
2022/04/19 01:14:28;;;;;;;;;;;11.50;99.90;;;;;;5072708;28;19954;-90
2022/04/19 01:16:54;;;;;;;;;;;11.40;99.90;;;;;;5054993;28;19908;-90
2022/04/19 01:19:20;;;;;;;;;;;11.50;99.90;;;;;;5054105;28;19916;-90
2022/04/19 01:21:46;;;;;;;;;;;11.60;99.90;;;;;;5050732;28;20015;-90
2022/04/19 01:24:15;;;;;;;;;;;11.70;99.90;;;;;;5051005;28;20326;-90
2022/04/19 01:26:41;;;;;;;;;;;11.60;99.90;;;;;;5050869;28;20020;-89
2022/04/19 01:29:10;;;;;;;;;;;11.50;99.90;;;;;;5050164;28;20412;-90
2022/04/19 01:31:37;;;;;;;;;;;11.40;99.90;;;;;;5050737;28;19917;-90
2022/04/19 01:34:03;;;;;;;;;;;11.40;99.90;;;;;;5050169;28;19908;-90
2022/04/19 01:36:29;;;;;;;;;;;11.40;99.90;;;;;;5052182;28;20007;-90
2022/04/19 01:38:54;;;;;;;;;;;11.30;99.90;;;;;;5050322;28;20158;-90
2022/04/19 01:41:20;;;;;;;;;;;11.30;99.90;;;;;;5050575;28;20281;-90
2022/04/19 01:43:45;;;;;;;;;;;11.30;99.90;;;;;;5050563;28;19913;-89
2022/04/19 01:46:11;;;;;;;;;;;11.20;99.90;;;;;;5050472;28;19909;-91
2022/04/19 01:48:36;;;;;;;;;;;11.20;99.90;;;;;;5051798;28;19909;-90
2022/04/19 01:51:02;;;;;;;;;;;11.20;99.90;;;;;;5050447;28;19917;-90
2022/04/19 01:53:28;;;;;;;;;;;11.20;99.90;;;;;;5050124;28;19909;-89
2022/04/19 01:55:54;;;;;;;;;;;11.10;99.90;;;;;;5051792;28;19909;-90
2022/04/19 01:58:20;;;;;;;;;;;11.10;99.90;;;;;;5051492;28;20097;-90
2022/04/19 02:00:45;;;;;;;;;;;11.00;99.90;;;;;;5060463;28;19908;-90
2022/04/19 02:03:11;;;;;;;;;;;11.00;99.90;;;;;;5049906;28;20377;-92
2022/04/19 02:05:36;;;;;;;;;;;11.00;99.90;;;;;;5049943;28;19931;-90
2022/04/19 02:08:02;;;;;;;;;;;11.10;99.90;;;;;;5050013;28;19909;-90
2022/04/19 02:10:27;;;;;;;;;;;11.00;99.90;;;;;;5049824;28;19915;-90
2022/04/19 02:12:53;;;;;;;;;;;11.00;99.90;;;;;;5051075;28;20341;-90
2022/04/19 02:15:19;;;;;;;;;;;11.00;99.90;;;;;;5068458;28;19897;-90
2022/04/19 02:17:48;;;;;;;;;;;10.80;99.90;;;;;;5056242;28;19909;-90
2022/04/19 02:20:14;;;;;;;;;;;10.80;99.90;;;;;;5051570;28;20008;-90
2022/04/19 02:22:40;;;;;;;;;;;10.70;99.90;;;;;;5069622;28;20395;-90
2022/04/19 02:25:06;;;;;;;;;;;10.60;99.90;;;;;;5052911;28;19916;-89
2022/04/19 02:27:33;;;;;;;;;;;10.60;99.90;;;;;;5053075;28;19909;-90
2022/04/19 02:29:59;;;;;;;;;;;10.60;99.90;;;;;;5053130;28;19962;-90
2022/04/19 02:32:25;;;;;;;;;;;10.50;99.90;;;;;;5070278;28;19916;-90
2022/04/19 02:34:51;;;;;;;;;;;10.50;99.90;;;;;;5052775;28;19920;-90
2022/04/19 02:37:17;;;;;;;;;;;10.50;99.90;;;;;;5053113;28;19908;-90
2022/04/19 02:39:42;;;;;;;;;;;10.50;99.90;;;;;;5052800;28;19915;-91
2022/04/19 02:42:08;;;;;;;;;;;10.50;99.90;;;;;;5070509;28;19909;-90
2022/04/19 02:44:34;;;;;;;;;;;10.50;99.90;;;;;;5070693;28;19916;-90
2022/04/19 02:47:02;;;;;;;;;;;10.50;99.90;;;;;;5070625;28;19908;-90
2022/04/19 02:49:28;;;;;;;;;;;10.40;99.90;;;;;;5052679;28;19916;-90
2022/04/19 02:51:55;;;;;;;;;;;10.40;99.90;;;;;;5052749;28;19993;-91
2022/04/19 02:54:20;;;;;;;;;;;10.40;99.90;;;;;;5070482;28;19912;-90
2022/04/19 02:56:47;;;;;;;;;;;10.40;99.90;;;;;;5052578;28;19909;-90
2022/04/19 02:59:13;;;;;;;;;;;10.30;99.90;;;;;;5052692;28;20316;-90
2022/04/19 03:01:38;;;;;;;;;;;10.40;99.90;;;;;;5070640;28;19908;-90
2022/04/19 03:04:04;;;;;;;;;;;10.30;99.90;;;;;;5052158;28;19908;-90
2022/04/19 03:06:30;;;;;;;;;;;10.20;99.90;;;;;;5070223;28;20365;-90
2022/04/19 03:08:55;;;;;;;;;;;10.20;99.90;;;;;;5052420;28;20152;-90
2022/04/19 03:11:21;;;;;;;;;;;10.20;99.90;;;;;;5070085;28;19920;-90
2022/04/19 03:13:47;;;;;;;;;;;10.20;99.90;;;;;;5070521;28;19943;-91
2022/04/19 03:16:14;;;;;;;;;;;10.30;99.90;;;;;;5070515;28;20285;-90
2022/04/19 03:18:43;;;;;;;;;;;10.20;99.90;;;;;;5052143;28;19912;-90
2022/04/19 03:21:12;;;;;;;;;;;10.20;99.90;;;;;;5051987;28;19921;-90
2022/04/19 03:29:07;;;;;;;;;;;10.10;99.90;;;;;;5070653;28;19915;-90
2022/04/19 03:31:33;;;;;;;;;;;10.10;99.90;;;;;;5069990;28;19920;-89
2022/04/19 03:33:59;;;;;;;;;;;10.10;99.90;;;;;;5051644;28;19908;-89
2022/04/19 03:36:24;;;;;;;;;;;10.00;99.90;;;;;;5052352;28;19912;-90
2022/04/19 03:38:50;;;;;;;;;;;10.00;99.90;;;;;;5070132;28;19909;-90
2022/04/19 03:41:16;;;;;;;;;;;10.00;99.90;;;;;;5070094;28;19912;-90
2022/04/19 03:43:41;;;;;;;;;;;10.00;99.90;;;;;;5052018;28;19996;-90
2022/04/19 03:46:10;;;;;;;;;;;9.90;99.90;;;;;;5051885;28;19987;-90
2022/04/19 03:48:36;;;;;;;;;;;10.00;99.90;;;;;;5051667;28;19908;-90
2022/04/19 03:51:03;;;;;;;;;;;10.00;99.90;;;;;;5052096;28;20394;-90
2022/04/19 03:53:32;;;;;;;;;;;9.90;99.90;;;;;;5054583;28;19916;-90
2022/04/19 03:56:00;;;;;;;;;;;10.00;99.90;;;;;;5073957;28;19908;-90
2022/04/19 03:58:27;;;;;;;;;;;10.00;99.90;;;;;;5073968;28;19916;-90
2022/04/19 04:00:55;;;;;;;;;;;10.00;99.90;;;;;;5055805;28;20283;-90
2022/04/19 04:03:24;;;;;;;;;;;10.00;99.90;;;;;;5055266;28;19908;-90
2022/04/19 04:05:49;;;;;;;;;;;10.10;99.90;;;;;;5055576;28;20007;-91
2022/04/19 04:08:16;;;;;;;;;;;10.10;99.90;;;;;;5057691;28;20007;-90
2022/04/19 04:10:41;;;;;;;;;;;10.10;99.90;;;;;;5092735;28;19988;-90
2022/04/19 04:13:07;;;;;;;;;;;10.00;99.90;;;;;;5073857;28;19959;-90
2022/04/19 04:15:33;;;;;;;;;;;10.00;99.90;;;;;;5072126;28;19916;-90
2022/04/19 04:17:58;;;;;;;;;;;9.90;99.90;;;;;;5073466;28;19944;-90
2022/04/19 04:20:24;;;;;;;;;;;9.90;99.90;;;;;;5073274;28;19959;-90
2022/04/19 04:22:50;;;;;;;;;;;9.80;99.90;;;;;;5072933;28;19920;-90
2022/04/19 04:25:15;;;;;;;;;;;9.80;99.90;;;;;;5073260;28;19908;-90
2022/04/19 04:27:41;;;;;;;;;;;9.70;99.90;;;;;;5071867;28;19954;-90
2022/04/19 04:30:07;;;;;;;;;;;9.70;99.90;;;;;;5073410;28;19960;-90
2022/04/19 04:32:32;;;;;;;;;;;9.70;99.90;;;;;;5073332;28;20458;-90
2022/04/19 04:34:58;;;;;;;;;;;9.70;99.90;;;;;;5071806;28;19912;-90
2022/04/19 04:37:24;;;;;;;;;;;9.70;99.90;;;;;;5071579;28;20469;-90
2022/04/19 04:39:49;;;;;;;;;;;9.70;99.90;;;;;;5071742;28;19909;-89
2022/04/19 04:42:15;;;;;;;;;;;9.60;99.90;;;;;;5072990;28;19919;-90
2022/04/19 04:44:40;;;;;;;;;;;9.60;99.90;;;;;;5071757;28;20375;-90
2022/04/19 04:49:50;;;;;;;;;;;9.60;99.90;;;;;;5073035;28;19915;-90
2022/04/19 04:52:16;;;;;;;;;;;9.60;99.90;;;;;;5071192;28;19917;-90
2022/04/19 04:54:42;;;;;;;;;;;9.60;99.90;;;;;;5071475;28;19924;-91
2022/04/19 04:57:08;;;;;;;;;;;9.60;99.90;;;;;;5071295;28;19909;-90
2022/04/19 04:59:34;;;;;;;;;;;9.60;99.90;;;;;;5071396;28;19920;-90
2022/04/19 05:02:00;;;;;;;;;;;9.60;99.90;;;;;;5072213;28;19916;-90
2022/04/19 05:04:26;;;;;;;;;;;9.60;99.90;;;;;;5071673;28;19912;-89
2022/04/19 05:06:52;;;;;;;;;;;9.60;99.90;;;;;;5071481;28;19909;-90
2022/04/19 05:09:18;;;;;;;;;;;9.60;99.90;;;;;;5072555;28;19935;-90
2022/04/19 05:11:46;;;;;;;;;;;9.70;99.90;;;;;;5071492;28;19913;-90
2022/04/19 05:14:12;;;;;;;;;;;9.70;99.90;;;;;;5071181;28;19912;-90
2022/04/19 05:16:38;;;;;;;;;;;9.80;99.90;;;;;;5071295;28;19909;-90
2022/04/19 05:19:03;;;;;;;;;;;9.80;99.90;;;;;;5071950;28;19909;-90
2022/04/19 05:21:29;;;;;;;;;;;9.90;99.90;;;;;;5070737;28;19923;-90
2022/04/19 05:23:55;;;;;;;;;;;9.80;99.90;;;;;;5072311;28;19908;-91
2022/04/19 05:26:21;;;;;;;;;;;9.80;99.90;;;;;;5072728;28;20205;-90
2022/04/19 05:28:47;;;;;;;;;;;9.90;99.90;;;;;;5070978;28;20297;-90
2022/04/19 05:31:12;;;;;;;;;;;9.90;99.90;;;;;;5070439;28;19962;-90
2022/04/19 05:33:38;;;;;;;;;;;10.00;99.90;;;;;;5071501;28;20042;-90
2022/04/19 05:36:07;;;;;;;;;;;10.10;99.90;;;;;;5071093;28;19919;-90
2022/04/19 05:38:32;;;;;;;;;;;10.00;99.90;;;;;;5072127;28;19963;-90
2022/04/19 05:40:58;;;;;;;;;;;10.00;99.90;;;;;;5070570;28;19944;-90
2022/04/19 05:43:24;;;;;;;;;;;9.90;99.90;;;;;;5072295;28;19909;-90
2022/04/19 05:45:49;;;;;;;;;;;9.90;99.90;;;;;;5070580;28;19977;-90
2022/04/19 05:48:15;;;;;;;;;;;10.00;99.90;;;;;;5071270;28;19909;-90
2022/04/19 05:50:41;;;;;;;;;;;10.00;99.90;;;;;;5070204;28;19999;-91
2022/04/19 05:53:06;;;;;;;;;;;10.10;99.90;;;;;;5071444;28;19913;-91
2022/04/19 05:55:35;;;;;;;;;;;10.00;99.90;;;;;;5071509;28;20336;-91
2022/04/19 05:58:00;;;;;;;;;;;10.00;99.90;;;;;;5071604;28;19916;-90
2022/04/19 06:00:26;;;;;;;;;;;10.10;99.90;;;;;;5071871;28;19908;-90
2022/04/19 06:05:35;;;;;;;;;;;10.30;99.90;;;;;;5090729;28;19919;-91
2022/04/19 06:08:01;;;;;;;;;;;10.40;99.90;;;;;;5074596;28;20340;-91
2022/04/19 06:10:27;;;;;;;;;;;10.40;99.90;;;;;;5069785;28;19908;-90
2022/04/19 06:12:52;;;;;;;;;;;10.30;99.90;;;;;;5070372;28;19943;-90
2022/04/19 06:15:18;;;;;;;;;;;10.30;99.90;;;;;;5069906;28;20319;-89
2022/04/19 06:17:43;;;;;;;;;;;10.30;99.90;;;;;;5069619;28;19912;-90
2022/04/19 06:20:10;;;;;;;;;;;10.40;99.90;;;;;;5071455;28;20016;-90
2022/04/19 06:22:35;;;;;;;;;;;10.40;99.90;;;;;;5069536;28;19927;-90
2022/04/19 06:25:01;;;;;;;;;;;10.40;99.90;;;;;;5071117;28;19908;-92
2022/04/19 06:27:27;;;;;;;;;;;10.50;99.90;;;;;;5071093;28;19912;-90
2022/04/19 06:29:53;;;;;;;;;;;10.50;99.90;;;;;;5071140;28;19919;-89
2022/04/19 06:32:18;;;;;;;;;;;10.50;99.90;;;;;;5070386;28;19951;-92
2022/04/19 06:34:44;;;;;;;;;;;10.60;99.90;;;;;;5070463;28;19909;-89
2022/04/19 06:37:10;;;;;;;;;;;10.70;99.90;;;;;;5070292;28;19912;-88
2022/04/19 06:39:36;;;;;;;;;;;10.80;99.90;;;;;;5070099;28;19917;-90
2022/04/19 06:42:01;;;;;;;;;;;10.90;99.90;;;;;;5069987;28;20478;-89
2022/04/19 06:44:27;;;;;;;;;;;10.90;99.90;;;;;;5070031;28;19916;-89
2022/04/19 06:46:52;;;;;;;;;;;10.90;99.90;;;;;;5067991;28;19916;-89
2022/04/19 06:49:18;;;;;;;;;;;10.90;99.90;;;;;;5070047;28;19916;-89
2022/04/19 06:51:44;;;;;;;;;;;11.00;99.90;;;;;;5070043;28;20475;-90
2022/04/19 06:54:10;;;;;;;;;;;11.10;99.90;;;;;;5070618;28;19913;-89
2022/04/19 06:56:36;;;;;;;;;;;11.00;99.90;;;;;;5075229;28;20100;-89
2022/04/19 06:59:01;;;;;;;;;;;10.90;99.90;;;;;;5080336;28;19908;-89
2022/04/19 07:01:27;;;;;;;;;;;10.90;99.90;;;;;;5071170;28;20335;-89
2022/04/19 07:03:53;;;;;;;;;;;11.00;99.90;;;;;;5075033;28;19908;-90
2022/04/19 07:06:18;;;;;;;;;;;11.10;99.90;;;;;;5070668;28;20019;-89
2022/04/19 07:08:44;;;;;;;;;;;11.20;99.90;;;;;;5075303;28;19981;-89
2022/04/19 07:11:12;;;;;;;;;;;11.10;99.90;;;;;;5070842;28;20138;-88
2022/04/19 07:13:37;;;;;;;;;;;11.10;99.90;;;;;;5071832;28;19915;-89
2022/04/19 07:16:03;;;;;;;;;;;11.00;99.90;;;;;;5074211;28;19904;-89
2022/04/19 07:18:29;;;;;;;;;;;11.10;99.90;;;;;;5080472;28;19936;-90
2022/04/19 07:26:38;;;;;;;;;;;11.30;99.90;;;;;;5074613;28;19958;-89
2022/04/19 07:29:04;;;;;;;;;;;11.40;99.90;;;;;;5065763;28;19952;-89
2022/04/19 07:31:31;;;;;;;;;;;11.40;99.90;;;;;;5068742;28;20131;-89
2022/04/19 07:33:57;;;;;;;;;;;11.40;99.90;;;;;;5069915;28;19909;-89
2022/04/19 07:36:22;;;;;;;;;;;11.50;99.90;;;;;;5070123;28;19916;-89
2022/04/19 07:38:48;;;;;;;;;;;11.60;99.90;;;;;;5070010;28;19916;-89
2022/04/19 07:41:13;;;;;;;;;;;11.60;99.90;;;;;;5070030;28;19909;-90
2022/04/19 07:43:39;;;;;;;;;;;11.70;99.90;;;;;;5069996;28;19935;-89
2022/04/19 07:46:05;;;;;;;;;;;11.60;99.90;;;;;;5070100;28;19923;-90
2022/04/19 07:48:31;;;;;;;;;;;11.50;99.90;;;;;;5070040;28;19908;-88
2022/04/19 07:50:57;;;;;;;;;;;11.50;99.90;;;;;;5070353;28;20023;-89
2022/04/19 07:53:23;;;;;;;;;;;11.50;99.90;;;;;;5071625;28;19959;-88
2022/04/19 07:55:49;;;;;;;;;;;11.50;99.90;;;;;;5069801;28;19909;-87
2022/04/19 07:58:14;;;;;;;;;;;11.60;99.90;;;;;;5069644;28;19909;-88
2022/04/19 08:00:40;;;;;;;;;;;11.60;99.90;;;;;;5074977;28;19904;-88
2022/04/19 08:03:05;;;;;;;;;;;11.60;99.90;;;;;;5076414;28;19904;-88
2022/04/19 08:05:31;;;;;;;;;;;11.80;99.90;;;;;;5069801;28;19958;-88
2022/04/19 08:07:57;;;;;;;;;;;11.90;99.90;;;;;;5070181;28;19908;-88
2022/04/19 08:10:23;;;;;;;;;;;12.10;99.90;;;;;;5070609;28;20357;-88
2022/04/19 08:12:49;;;;;;;;;;;12.20;99.90;;;;;;5068653;28;19966;-88
2022/04/19 08:15:14;;;;;;;;;;;12.20;99.90;;;;;;5069721;28;19909;-90
2022/04/19 08:17:40;;;;;;;;;;;12.40;99.90;;;;;;5069343;28;19912;-88
2022/04/19 08:20:06;;;;;;;;;;;12.50;99.90;;;;;;5068247;28;20387;-88
2022/04/19 08:22:32;;;;;;;;;;;12.60;99.90;;;;;;5068279;28;19939;-90
2022/04/19 08:24:59;;;;;;;;;;;12.60;99.90;;;;;;5068495;28;19908;-88
2022/04/19 08:27:25;;;;;;;;;;;12.70;99.90;;;;;;5068278;28;20363;-88
2022/04/19 08:29:51;;;;;;;;;;;13.00;99.90;;;;;;5071740;28;20073;-89
2022/04/19 08:32:16;;;;;;;;;;;13.30;99.90;;;;;;5069546;28;20392;-88
2022/04/19 08:34:42;;;;;;;;;;;13.70;99.90;;;;;;5068851;28;19913;-88
2022/04/19 08:37:09;;;;;;;;;;;13.80;99.90;;;;;;5069049;28;19916;-88
2022/04/19 08:39:35;;;;;;;;;;;14.00;99.90;;;;;;5069937;28;20399;-89
2022/04/19 08:42:00;;;;;;;;;;;14.00;99.90;;;;;;5073463;28;19908;-89
2022/04/19 08:44:26;;;;;;;;;;;14.10;99.90;;;;;;5073263;28;19912;-88
2022/04/19 08:46:53;;;;;;;;;;;13.90;99.90;;;;;;5072743;28;19931;-89
2022/04/19 08:49:20;;;;;;;;;;;13.80;99.90;;;;;;5066693;28;19908;-88
2022/04/19 08:51:45;;;;;;;;;;;13.50;99.90;;;;;;5072702;28;20574;-89
2022/04/19 08:59:40;;;;;;;;;;;13.80;99.90;;;;;;5072959;28;19931;-88
2022/04/19 09:02:06;;;;;;;;;;;13.70;99.90;;;;;;5072268;28;20456;-88
2022/04/19 09:04:33;;;;;;;;;;;13.80;99.90;;;;;;5072449;28;19959;-88
2022/04/19 09:06:59;;;;;;;;;;;14.00;99.90;;;;;;5071176;28;19909;-88
2022/04/19 09:09:29;;;;;;;;;;;14.30;99.90;;;;;;5072497;28;19920;-88
2022/04/19 09:12:05;;;;;;;;;;;14.60;99.90;;;;;;5072271;28;19916;-90
2022/04/19 09:14:31;;;;;;;;;;;14.90;99.90;;;;;;5072410;28;19948;-89
2022/04/19 09:17:04;;;;;;;;;;;15.00;99.90;;;;;;5070535;28;20376;-90
2022/04/19 09:19:29;;;;;;;;;;;15.00;99.90;;;;;;5072819;28;19916;-91
2022/04/19 09:21:55;;;;;;;;;;;15.00;99.90;;;;;;5060528;28;20000;-90
2022/04/19 09:24:21;;;;;;;;;;;15.10;99.90;;;;;;5053140;28;19908;-90
2022/04/19 09:26:50;;;;;;;;;;;15.20;99.90;;;;;;5034733;28;19915;-89
2022/04/19 09:29:21;;;;;;;;;;;15.30;99.90;;;;;;5052636;28;20457;-91
2022/04/19 09:31:54;;;;;;;;;;;15.30;99.90;;;;;;5033948;28;19916;-90
2022/04/19 09:34:38;;;;;;;;;;;15.40;99.90;;;;;;5034629;28;19962;-90
2022/04/19 09:37:08;;;;;;;;;;;15.50;99.90;;;;;;5052776;28;19909;-90
2022/04/19 09:39:37;;;;;;;;;;;15.70;99.90;;;;;;5053027;28;20373;-89
2022/04/19 09:42:04;;;;;;;;;;;15.80;99.90;;;;;;5053317;28;19909;-90
2022/04/19 09:44:30;;;;;;;;;;;15.80;99.90;;;;;;5034830;28;19963;-90
2022/04/19 09:47:04;;;;;;;;;;;15.90;99.90;;;;;;5052241;28;20370;-90
2022/04/19 09:49:48;;;;;;;;;;;15.70;99.90;;;;;;5034546;28;19909;-89
2022/04/19 09:52:15;;;;;;;;;;;15.60;99.90;;;;;;5033802;28;20355;-91
2022/04/19 09:54:43;;;;;;;;;;;15.70;99.90;;;;;;5046717;28;19935;-91
2022/04/19 09:57:09;;;;;;;;;;;15.70;99.90;;;;;;5059517;28;19992;-90
2022/04/19 09:59:45;;;;;;;;;;;15.70;99.90;;;;;;5052435;28;19969;-90
2022/04/19 10:10:24;;;;;;;;;;;16.20;99.90;;;;;;5052143;28;19931;-88
2022/04/19 10:12:53;;;;;;;;;;;16.10;99.90;;;;;;5051549;28;20348;-92
2022/04/19 10:15:19;;;;;;;;;;;15.90;99.90;;;;;;5033660;28;19908;-89
2022/04/19 10:17:46;;;;;;;;;;;15.90;99.90;;;;;;5051791;28;19909;-91
2022/04/19 10:20:12;;;;;;;;;;;16.00;99.90;;;;;;5052013;28;19909;-91
2022/04/19 10:22:44;;;;;;;;;;;16.20;99.90;;;;;;5069516;28;19928;-90
2022/04/19 10:25:11;;;;;;;;;;;16.10;99.90;;;;;;5071724;28;20373;-91
2022/04/19 10:27:36;;;;;;;;;;;16.30;99.90;;;;;;5054145;28;19935;-90
2022/04/19 10:30:03;;;;;;;;;;;16.50;99.90;;;;;;5054102;28;20385;-89
2022/04/19 10:32:33;;;;;;;;;;;16.60;99.90;;;;;;5071361;28;20443;-91
2022/04/19 10:35:00;;;;;;;;;;;16.60;99.90;;;;;;5071688;28;20684;-89
2022/04/19 10:37:26;;;;;;;;;;;16.60;99.90;;;;;;5071652;28;19944;-90
2022/04/19 10:40:03;;;;;;;;;;;16.70;99.90;;;;;;5076909;28;19905;-89
2022/04/19 10:42:38;;;;;;;;;;;16.70;99.90;;;;;;5081999;28;19917;-89
2022/04/19 10:45:13;;;;;;;;;;;16.90;99.90;;;;;;5063979;28;19904;-90
2022/04/19 10:47:51;;;;;;;;;;;17.00;99.90;;;;;;5077392;28;19943;-90
2022/04/19 10:50:29;;;;;;;;;;;16.90;99.90;;;;;;5069527;28;20280;-91
2022/04/19 10:52:59;;;;;;;;;;;16.80;99.90;;;;;;5052532;28;20292;-89
2022/04/19 10:55:26;;;;;;;;;;;16.70;99.90;;;;;;5071075;28;19924;-88
2022/04/19 10:58:09;;;;;;;;;;;16.70;99.90;;;;;;5070935;28;19991;-89
2022/04/19 11:00:34;;;;;;;;;;;16.70;99.90;;;;;;5070961;28;19908;-88
2022/04/19 11:03:03;;;;;;;;;;;16.60;99.90;;;;;;5070050;28;19908;-89
2022/04/19 11:05:36;;;;;;;;;;;16.40;99.90;;;;;;5070790;28;19916;-89
2022/04/19 11:08:23;;;;;;;;;;;16.50;99.90;;;;;;5052693;28;20265;-88
2022/04/19 11:10:49;;;;;;;;;;;16.50;99.90;;;;;;5070515;28;19909;-89
2022/04/19 11:13:15;;;;;;;;;;;16.60;99.90;;;;;;5052609;28;19912;-90
2022/04/19 11:15:42;;;;;;;;;;;16.70;99.90;;;;;;5070753;28;19912;-89
2022/04/19 11:18:27;;;;;;;;;;;16.90;99.90;;;;;;5064017;28;19945;-89
2022/04/19 11:21:00;;;;;;;;;;;17.00;99.90;;;;;;5066331;28;19916;-89
2022/04/19 11:23:26;;;;;;;;;;;17.20;99.90;;;;;;5070588;28;20294;-88
2022/04/19 11:25:53;;;;;;;;;;;17.50;99.90;;;;;;5052457;28;19916;-88
2022/04/19 11:28:23;;;;;;;;;;;17.70;99.90;;;;;;5070564;28;19909;-88
2022/04/19 11:30:57;;;;;;;;;;;17.70;99.20;;;;;;5070670;28;20003;-89
2022/04/19 11:33:35;;;;;;;;;;;17.90;98.20;;;;;;5071818;28;20369;-88
2022/04/19 11:36:02;;;;;;;;;;;18.10;98.50;;;;;;5053241;28;19909;-90
2022/04/19 11:38:29;;;;;;;;;;;18.50;99.00;;;;;;5052966;28;20385;-91
2022/04/19 11:49:09;;;;;;;;;;;19.00;96.90;;;;;;5090539;28;19987;-91
2022/04/19 11:51:35;;;;;;;;;;;18.90;96.40;;;;;;5053857;28;20007;-92
2022/04/19 11:54:08;;;;;;;;;;;18.90;96.30;;;;;;5071229;28;19909;-89
2022/04/19 11:56:34;;;;;;;;;;;19.00;96.20;;;;;;5071399;28;19915;-90
2022/04/19 11:59:00;;;;;;;;;;;19.00;96.00;;;;;;5070989;28;19908;-91
2022/04/19 12:01:27;;;;;;;;;;;19.10;97.50;;;;;;5052660;28;20008;-92
2022/04/19 12:03:52;;;;;;;;;;;19.10;97.80;;;;;;5070730;28;19920;-92
2022/04/19 12:06:19;;;;;;;;;;;19.40;97.10;;;;;;5053046;28;19908;-89
2022/04/19 12:08:46;;;;;;;;;;;19.50;96.10;;;;;;5070926;28;20002;-91
2022/04/19 12:11:14;;;;;;;;;;;19.60;96.50;;;;;;5053108;28;20079;-90
2022/04/19 12:13:42;;;;;;;;;;;19.60;95.90;;;;;;5071556;28;19993;-92
2022/04/19 12:16:25;;;;;;;;;;;19.40;95.90;;;;;;5074427;28;19908;-90
2022/04/19 12:18:53;;;;;;;;;;;19.40;96.00;;;;;;5056928;28;19908;-93
2022/04/19 12:21:32;;;;;;;;;;;19.50;95.30;;;;;;5074788;28;19916;-92
2022/04/19 12:23:58;;;;;;;;;;;19.40;94.60;;;;;;5074865;28;19912;-92
2022/04/19 12:26:24;;;;;;;;;;;19.50;95.20;;;;;;5056474;28;19962;-93
2022/04/19 12:28:50;;;;;;;;;;;19.80;95.10;;;;;;5074402;28;19914;-90
2022/04/19 12:31:35;;;;;;;;;;;19.80;95.00;;;;;;5074677;28;19912;-92
2022/04/19 12:34:01;;;;;;;;;;;19.50;95.10;;;;;;5056406;28;19913;-91
2022/04/19 12:36:27;;;;;;;;;;;19.40;94.20;;;;;;5075040;28;19914;-90
2022/04/19 12:38:57;;;;;;;;;;;19.30;94.20;;;;;;5056221;28;19982;-90
2022/04/19 12:41:31;;;;;;;;;;;19.40;94.30;;;;;;5056253;28;19912;-89
2022/04/19 12:44:02;;;;;;;;;;;19.70;94.20;;;;;;5073955;28;19909;-91
2022/04/19 12:46:28;;;;;;;;;;;20.00;94.20;;;;;;5073513;28;19908;-90
2022/04/19 12:48:54;;;;;;;;;;;20.40;93.20;;;;;;5074127;28;19912;-91
2022/04/19 12:51:24;;;;;;;;;;;20.40;92.20;;;;;;5074116;28;19916;-93
2022/04/19 12:54:03;;;;;;;;;;;20.60;92.90;;;;;;5074077;28;19912;-90
2022/04/19 12:56:28;;;;;;;;;;;20.90;91.90;;;;;;5074021;28;19913;-91
2022/04/19 12:58:54;;;;;;;;;;;21.10;91.80;;;;;;5055902;28;20007;-92
2022/04/19 13:01:19;;;;;;;;;;;20.80;92.30;;;;;;5073068;28;19909;-90
2022/04/19 13:03:45;;;;;;;;;;;20.10;93.10;;;;;;5073561;28;19915;-92
2022/04/19 13:14:23;;;;;;;;;;;19.60;93.80;;;;;;5073953;28;19939;-91
2022/04/19 13:16:48;;;;;;;;;;;19.40;93.30;;;;;;5054747;28;19912;-90
2022/04/19 13:19:14;;;;;;;;;;;19.10;94.00;;;;;;5055467;28;20007;-92
2022/04/19 13:21:39;;;;;;;;;;;19.00;95.10;;;;;;5073352;28;19924;-92
2022/04/19 13:24:06;;;;;;;;;;;19.20;95.20;;;;;;5073664;28;19909;-89
2022/04/19 13:26:32;;;;;;;;;;;19.00;94.90;;;;;;5071791;28;19927;-88
2022/04/19 13:28:58;;;;;;;;;;;18.80;94.90;;;;;;5072498;28;19909;-89
2022/04/19 13:31:23;;;;;;;;;;;18.70;94.60;;;;;;5072047;28;20372;-90
2022/04/19 13:33:50;;;;;;;;;;;18.60;95.00;;;;;;5072147;28;20400;-89
2022/04/19 13:36:16;;;;;;;;;;;18.20;95.00;;;;;;5072056;28;19908;-88
2022/04/19 13:38:41;;;;;;;;;;;18.00;94.80;;;;;;5072368;28;19915;-88
2022/04/19 13:41:07;;;;;;;;;;;18.10;94.70;;;;;;5076001;28;19909;-89
2022/04/19 13:43:33;;;;;;;;;;;18.00;95.10;;;;;;5074737;28;19909;-88
2022/04/19 13:45:58;;;;;;;;;;;17.90;95.40;;;;;;5072010;28;19913;-88
2022/04/19 13:48:24;;;;;;;;;;;17.80;96.40;;;;;;5071772;28;19954;-88
2022/04/19 13:50:51;;;;;;;;;;;17.60;96.60;;;;;;5054027;28;19952;-88
2022/04/19 13:53:16;;;;;;;;;;;17.60;97.10;;;;;;5071919;28;19918;-88
2022/04/19 13:55:42;;;;;;;;;;;17.60;96.70;;;;;;5071793;28;19908;-88
2022/04/19 13:58:08;;;;;;;;;;;17.60;96.90;;;;;;5053853;28;19908;-89
2022/04/19 14:00:34;;;;;;;;;;;17.80;96.40;;;;;;5071578;28;19963;-88
2022/04/19 14:03:00;;;;;;;;;;;17.90;96.20;;;;;;5053514;28;19940;-89
2022/04/19 14:05:25;;;;;;;;;;;17.70;95.70;;;;;;5071940;28;20034;-89
2022/04/19 14:07:51;;;;;;;;;;;17.60;96.10;;;;;;5071710;28;20390;-88
2022/04/19 14:10:16;;;;;;;;;;;17.80;96.00;;;;;;5071600;28;19919;-88
2022/04/19 14:12:42;;;;;;;;;;;17.90;97.00;;;;;;5071237;28;19920;-89
2022/04/19 14:15:08;;;;;;;;;;;17.60;98.00;;;;;;5071229;28;19962;-88
2022/04/19 14:17:33;;;;;;;;;;;17.80;96.70;;;;;;5073522;28;20027;-88
2022/04/19 14:19:59;;;;;;;;;;;17.80;96.80;;;;;;5071117;28;20258;-88
2022/04/19 14:22:24;;;;;;;;;;;17.70;96.90;;;;;;5071852;28;20359;-89
2022/04/19 14:24:54;;;;;;;;;;;17.50;99.90;;;;;;5071332;28;19916;-88
2022/04/19 14:27:19;;;;;;;;;;;17.10;99.90;;;;;;5071327;28;20391;-88
2022/04/19 14:35:17;;;;;;;;;;;16.60;99.90;;;;;;5071227;28;19955;-88
2022/04/19 14:37:43;;;;;;;;;;;16.50;99.90;;;;;;5071264;28;19909;-88
2022/04/19 14:40:08;;;;;;;;;;;16.50;99.90;;;;;;5072802;28;19914;-89
2022/04/19 14:42:34;;;;;;;;;;;16.40;99.90;;;;;;5071196;28;19999;-89
2022/04/19 14:44:59;;;;;;;;;;;16.20;99.90;;;;;;5071010;28;19956;-88
2022/04/19 14:47:25;;;;;;;;;;;16.00;99.90;;;;;;5072174;28;19917;-86
2022/04/19 14:49:51;;;;;;;;;;;16.10;99.90;;;;;;5060349;28;20350;-87
2022/04/19 14:52:18;;;;;;;;;;;16.30;99.90;;;;;;5068064;28;20390;-87
2022/04/19 14:54:45;;;;;;;;;;;16.40;99.90;;;;;;5070875;28;19908;-87
2022/04/19 14:57:10;;;;;;;;;;;16.40;99.90;;;;;;5053145;28;20023;-86
2022/04/19 14:59:36;;;;;;;;;;;16.30;99.90;;;;;;5053159;28;19995;-86
2022/04/19 15:02:04;;;;;;;;;;;16.20;99.90;;;;;;5052248;28;20042;-86
2022/04/19 15:04:30;;;;;;;;;;;16.30;99.90;;;;;;5070897;28;19912;-87
2022/04/19 15:06:55;;;;;;;;;;;16.40;99.90;;;;;;5070475;28;19954;-86
2022/04/19 15:09:21;;;;;;;;;;;16.40;99.90;;;;;;5070632;28;20361;-86
2022/04/19 15:11:46;;;;;;;;;;;16.40;99.90;;;;;;5070698;28;20372;-87